Time;durP1;ratioP1;P1;durP2;ratioP2;P2;SDS_P1;SDS_P2;PMS_P1;PMS_P2;Temp;Humidity;BMP_temperature;BMP_pressure;BME280_temperature;BME280_humidity;BME280_pressure;Samples;Min_cycle;Max_cycle;Signal;HPM_P1;HPM_P2
2021/11/19 00:01:40;;;;;;;19.03;13.27;;;10.20;99.90;;;;;;5117897;28;20548;-67
2021/11/19 00:04:09;;;;;;;22.90;13.30;;;10.20;99.90;;;;;;5117907;28;20468;-68
2021/11/19 00:06:37;;;;;;;23.90;14.10;;;10.20;99.90;;;;;;5117521;28;20478;-67
2021/11/19 00:09:05;;;;;;;24.47;13.60;;;10.20;99.90;;;;;;5117321;28;20772;-67
2021/11/19 00:11:35;;;;;;;20.00;15.13;;;10.20;99.90;;;;;;5116814;28;20467;-67
2021/11/19 00:14:02;;;;;;;20.70;14.90;;;10.20;99.90;;;;;;5117265;27;20489;-67
2021/11/19 00:16:29;;;;;;;22.53;14.27;;;10.30;99.90;;;;;;5117365;28;20453;-67
2021/11/19 00:18:57;;;;;;;29.20;15.43;;;10.20;99.90;;;;;;5118106;28;20786;-67
2021/11/19 00:21:26;;;;;;;21.50;14.00;;;10.20;99.90;;;;;;5117777;27;20457;-67
2021/11/19 00:23:55;;;;;;;21.47;15.30;;;10.30;99.90;;;;;;5117384;28;20491;-67
2021/11/19 00:26:23;;;;;;;17.50;14.63;;;10.20;99.90;;;;;;5117903;28;20491;-67
2021/11/19 00:28:51;;;;;;;20.10;14.97;;;10.20;99.90;;;;;;5117285;28;20461;-67
2021/11/19 00:31:18;;;;;;;23.53;14.77;;;10.30;99.90;;;;;;5116862;28;20926;-66
2021/11/19 00:33:46;;;;;;;21.00;14.67;;;10.30;99.90;;;;;;5117085;28;20466;-67
2021/11/19 00:36:15;;;;;;;23.13;14.13;;;10.30;99.90;;;;;;5116731;28;20457;-66
2021/11/19 00:38:43;;;;;;;23.57;15.33;;;10.30;99.90;;;;;;5116641;28;20459;-67
2021/11/19 00:41:12;;;;;;;17.57;14.73;;;10.40;99.90;;;;;;5117314;28;20454;-67
2021/11/19 00:43:40;;;;;;;20.03;13.87;;;10.40;99.90;;;;;;5116722;28;20526;-68
2021/11/19 00:46:08;;;;;;;18.20;13.00;;;10.40;99.90;;;;;;5116971;28;20801;-67
2021/11/19 00:48:37;;;;;;;19.77;14.30;;;10.40;99.90;;;;;;5117062;28;20762;-68
2021/11/19 00:51:06;;;;;;;17.37;13.30;;;10.40;99.90;;;;;;5116415;28;20464;-68
2021/11/19 00:53:35;;;;;;;16.40;13.00;;;10.40;99.90;;;;;;5116075;28;20457;-68
2021/11/19 00:56:01;;;;;;;19.07;14.00;;;10.40;99.90;;;;;;5117073;28;20490;-67
2021/11/19 00:58:29;;;;;;;19.27;13.07;;;10.40;99.90;;;;;;5117354;28;20457;-67
2021/11/19 01:00:59;;;;;;;20.57;15.40;;;10.40;99.90;;;;;;5116829;28;20830;-67
2021/11/19 01:03:27;;;;;;;22.30;14.40;;;10.40;99.90;;;;;;5116634;27;20471;-68
2021/11/19 01:05:55;;;;;;;27.10;15.33;;;10.50;99.90;;;;;;5116554;28;20906;-68
2021/11/19 01:08:23;;;;;;;18.83;14.63;;;10.40;99.90;;;;;;5116139;27;20470;-69
2021/11/19 01:10:51;;;;;;;19.50;13.60;;;10.50;99.90;;;;;;5116364;28;20457;-68
2021/11/19 01:13:18;;;;;;;20.57;13.83;;;10.50;99.90;;;;;;5115962;28;20453;-68
2021/11/19 01:15:49;;;;;;;17.73;14.43;;;10.50;99.90;;;;;;5116099;28;20467;-68
2021/11/19 01:18:18;;;;;;;20.30;15.07;;;10.50;99.90;;;;;;5116353;28;20452;-68
2021/11/19 01:20:48;;;;;;;21.23;14.03;;;10.50;99.90;;;;;;5116055;28;20797;-68
2021/11/19 01:23:18;;;;;;;33.63;14.37;;;10.50;99.90;;;;;;5115145;28;20483;-69
2021/11/19 01:25:48;;;;;;;19.90;14.70;;;10.50;99.90;;;;;;5116025;28;20466;-69
2021/11/19 01:28:17;;;;;;;22.10;14.67;;;10.50;99.90;;;;;;5116236;27;20785;-67
2021/11/19 01:30:47;;;;;;;23.37;14.97;;;10.50;99.90;;;;;;5115922;28;20466;-69
2021/11/19 01:33:17;;;;;;;18.27;14.00;;;10.60;99.90;;;;;;5115818;28;20815;-68
2021/11/19 01:35:44;;;;;;;24.30;15.53;;;10.60;99.90;;;;;;5116057;28;20468;-68
2021/11/19 01:38:11;;;;;;;20.17;14.73;;;10.60;99.90;;;;;;5115818;28;20510;-68
2021/11/19 01:40:41;;;;;;;24.07;14.20;;;10.60;99.90;;;;;;5115756;28;20531;-68
2021/11/19 01:43:11;;;;;;;19.60;14.57;;;10.60;99.90;;;;;;5115856;28;20455;-68
2021/11/19 01:45:41;;;;;;;18.97;14.80;;;10.60;99.90;;;;;;5115525;28;20517;-68
2021/11/19 01:48:13;;;;;;;19.27;14.40;;;10.60;99.90;;;;;;5115634;28;20476;-68
2021/11/19 01:50:45;;;;;;;18.40;13.93;;;10.70;99.90;;;;;;5115351;28;20443;-68
2021/11/19 01:53:16;;;;;;;19.13;14.43;;;10.70;99.90;;;;;;5115437;28;20884;-69
2021/11/19 01:55:51;;;;;;;18.90;13.20;;;10.70;99.90;;;;;;5115537;28;20438;-67
2021/11/19 01:58:22;;;;;;;23.00;14.27;;;10.70;99.90;;;;;;5115543;28;20502;-68
2021/11/19 02:00:53;;;;;;;17.97;14.00;;;10.70;99.90;;;;;;5115473;28;20450;-67
2021/11/19 02:03:24;;;;;;;18.33;13.03;;;10.70;99.90;;;;;;5114737;28;20887;-67
2021/11/19 02:05:55;;;;;;;20.40;14.40;;;10.80;99.90;;;;;;5115336;27;20478;-67
2021/11/19 02:08:24;;;;;;;17.00;13.20;;;10.80;99.90;;;;;;5115359;28;20465;-67
2021/11/19 02:11:04;;;;;;;22.00;14.67;;;10.80;99.90;;;;;;5115432;28;20463;-67
2021/11/19 02:13:36;;;;;;;14.90;12.60;;;10.80;99.90;;;;;;5115367;28;20453;-68
2021/11/19 02:16:07;;;;;;;16.43;13.70;;;10.80;99.90;;;;;;5115360;28;20470;-67
2021/11/19 02:18:39;;;;;;;18.23;12.60;;;10.80;99.90;;;;;;5115197;28;20457;-69
2021/11/19 02:21:09;;;;;;;18.70;14.10;;;10.80;99.90;;;;;;5115114;28;20855;-68
2021/11/19 02:23:39;;;;;;;15.30;12.50;;;10.80;99.90;;;;;;5115035;28;20488;-68
2021/11/19 02:26:10;;;;;;;16.77;13.90;;;10.80;99.90;;;;;;5115994;28;20446;-68
2021/11/19 02:28:39;;;;;;;20.03;13.30;;;10.90;99.90;;;;;;5115266;28;20438;-69
2021/11/19 02:31:11;;;;;;;19.10;12.90;;;10.90;99.90;;;;;;5114963;28;20461;-68
2021/11/19 02:33:41;;;;;;;15.30;11.70;;;10.90;99.90;;;;;;5114863;28;20437;-68
2021/11/19 02:36:15;;;;;;;16.33;12.77;;;10.90;99.90;;;;;;5115333;28;20438;-68
2021/11/19 02:38:46;;;;;;;15.17;11.97;;;10.90;99.90;;;;;;5115263;28;20513;-68
2021/11/19 02:41:17;;;;;;;13.87;12.00;;;11.00;99.90;;;;;;5114805;28;20437;-68
2021/11/19 02:43:46;;;;;;;17.17;12.23;;;11.00;99.90;;;;;;5115190;28;20479;-68
2021/11/19 02:46:17;;;;;;;20.70;12.53;;;11.00;99.90;;;;;;5114657;28;20927;-68
2021/11/19 02:48:46;;;;;;;16.00;11.87;;;11.00;99.90;;;;;;5114875;28;20448;-68
2021/11/19 02:51:15;;;;;;;14.57;12.30;;;11.10;99.90;;;;;;5114558;28;20447;-69
2021/11/19 02:53:43;;;;;;;18.17;11.20;;;11.10;99.90;;;;;;5115349;28;20562;-68
2021/11/19 02:56:10;;;;;;;15.50;12.20;;;11.10;99.90;;;;;;5114671;28;20525;-68
2021/11/19 02:58:41;;;;;;;16.43;11.43;;;11.10;99.90;;;;;;5115142;28;20526;-69
2021/11/19 03:01:11;;;;;;;14.73;11.93;;;11.10;99.90;;;;;;5114811;28;20960;-69
2021/11/19 03:03:40;;;;;;;14.43;10.93;;;11.20;99.90;;;;;;5114678;28;20464;-68
2021/11/19 03:06:08;;;;;;;14.80;10.50;;;11.20;99.90;;;;;;5114617;28;20918;-68
2021/11/19 03:08:35;;;;;;;12.97;11.10;;;11.20;99.90;;;;;;5114486;28;20483;-68
2021/11/19 03:11:03;;;;;;;13.70;11.03;;;11.20;99.90;;;;;;5115137;28;20548;-68
2021/11/19 03:13:33;;;;;;;15.70;12.20;;;11.20;99.90;;;;;;5114855;28;20460;-70
2021/11/19 03:16:00;;;;;;;12.73;10.70;;;11.20;99.90;;;;;;5116678;28;20472;-68
2021/11/19 03:18:28;;;;;;;14.83;11.20;;;11.20;99.90;;;;;;5118595;28;20451;-69
2021/11/19 03:20:59;;;;;;;14.67;11.30;;;11.20;99.90;;;;;;5118454;27;20456;-69
2021/11/19 03:23:32;;;;;;;14.93;10.80;;;11.20;99.90;;;;;;5118359;28;20947;-68
2021/11/19 03:26:00;;;;;;;12.70;10.90;;;11.20;99.90;;;;;;5118693;27;20446;-69
2021/11/19 03:28:28;;;;;;;14.43;10.60;;;11.20;99.90;;;;;;5118290;28;20479;-68
2021/11/19 03:31:00;;;;;;;15.10;11.00;;;11.30;99.90;;;;;;5118254;28;20832;-68
2021/11/19 03:33:29;;;;;;;16.20;10.53;;;11.30;99.90;;;;;;5118443;28;20441;-69
2021/11/19 03:35:56;;;;;;;13.10;10.50;;;11.30;99.90;;;;;;5117897;28;20467;-69
2021/11/19 03:38:25;;;;;;;19.57;12.53;;;11.30;99.90;;;;;;5118245;28;20512;-69
2021/11/19 03:40:55;;;;;;;13.33;10.27;;;11.30;99.90;;;;;;5117888;28;20464;-69
2021/11/19 03:43:28;;;;;;;14.70;10.30;;;11.40;99.90;;;;;;5118120;28;20887;-68
2021/11/19 03:45:58;;;;;;;10.87;9.70;;;11.40;99.90;;;;;;5117973;28;20861;-68
2021/11/19 03:48:25;;;;;;;11.73;10.00;;;11.40;99.90;;;;;;5117942;28;20511;-68
2021/11/19 03:50:55;;;;;;;10.70;9.20;;;11.40;99.90;;;;;;5118072;28;20457;-68
2021/11/19 03:53:23;;;;;;;15.10;10.87;;;11.40;99.90;;;;;;5117676;28;20832;-68
2021/11/19 03:55:51;;;;;;;12.60;9.47;;;11.40;99.90;;;;;;5117638;28;20895;-68
2021/11/19 03:58:22;;;;;;;12.77;10.53;;;11.40;99.90;;;;;;5117969;28;20784;-68
2021/11/19 04:00:52;;;;;;;17.43;12.47;;;11.30;99.90;;;;;;5117965;28;20462;-68
2021/11/19 04:03:19;;;;;;;13.07;11.40;;;11.30;99.90;;;;;;5117843;27;20459;-68
2021/11/19 04:05:47;;;;;;;17.13;11.10;;;11.30;99.90;;;;;;5117572;27;20456;-68
2021/11/19 04:08:14;;;;;;;17.40;11.03;;;11.20;99.90;;;;;;5117863;27;20742;-68
2021/11/19 04:10:42;;;;;;;15.20;12.40;;;11.20;99.90;;;;;;5117694;28;20798;-68
2021/11/19 04:13:09;;;;;;;18.10;12.63;;;11.20;99.90;;;;;;5117565;28;20516;-68
2021/11/19 04:15:42;;;;;;;16.60;11.50;;;11.20;99.90;;;;;;5117485;28;20465;-68
2021/11/19 04:18:10;;;;;;;18.17;12.30;;;11.20;99.90;;;;;;5117527;28;20474;-68
2021/11/19 04:20:37;;;;;;;18.40;12.63;;;11.20;99.90;;;;;;5117451;28;20839;-68
2021/11/19 04:23:05;;;;;;;17.40;10.90;;;11.20;99.90;;;;;;5116776;28;20481;-67
2021/11/19 04:25:33;;;;;;;16.60;12.57;;;11.10;99.90;;;;;;5117197;28;20798;-67
2021/11/19 04:28:00;;;;;;;16.50;12.87;;;11.20;99.90;;;;;;5117211;28;20829;-68
2021/11/19 04:30:29;;;;;;;22.00;12.70;;;11.20;99.90;;;;;;5116851;28;20520;-68
2021/11/19 04:32:58;;;;;;;19.03;12.20;;;11.20;99.90;;;;;;5116768;27;20478;-68
2021/11/19 04:35:25;;;;;;;25.77;14.60;;;11.20;99.90;;;;;;5117211;28;20455;-68
2021/11/19 04:37:52;;;;;;;18.53;13.83;;;11.20;99.90;;;;;;5116781;28;20476;-68
2021/11/19 04:40:20;;;;;;;17.20;13.60;;;11.20;99.90;;;;;;5117065;28;20457;-67
2021/11/19 04:42:48;;;;;;;23.80;13.40;;;11.20;99.90;;;;;;5117098;28;20457;-67
2021/11/19 04:45:18;;;;;;;20.27;14.20;;;11.30;99.90;;;;;;5119090;28;20518;-68
2021/11/19 04:47:46;;;;;;;26.10;16.83;;;11.30;99.90;;;;;;5118133;28;20464;-68
2021/11/19 04:50:16;;;;;;;30.13;18.50;;;11.30;99.90;;;;;;5117432;28;20529;-69
2021/11/19 04:52:43;;;;;;;23.77;17.73;;;11.30;99.90;;;;;;5117043;28;20524;-69
2021/11/19 04:55:11;;;;;;;29.47;19.80;;;11.30;99.90;;;;;;5116988;28;20490;-68
2021/11/19 04:57:38;;;;;;;27.27;18.40;;;11.30;99.90;;;;;;5116849;28;20464;-69
2021/11/19 05:00:09;;;;;;;27.20;17.73;;;11.30;99.90;;;;;;5116959;28;20465;-69
2021/11/19 05:02:36;;;;;;;25.27;15.77;;;11.30;99.90;;;;;;5116918;28;20463;-69
2021/11/19 05:05:04;;;;;;;24.17;16.40;;;11.30;99.90;;;;;;5116903;28;20453;-68
2021/11/19 05:07:32;;;;;;;22.23;15.63;;;11.30;99.90;;;;;;5116572;27;20960;-68
2021/11/19 05:09:59;;;;;;;23.37;16.20;;;11.30;99.90;;;;;;5116043;28;20889;-68
2021/11/19 05:12:32;;;;;;;22.57;15.43;;;11.30;99.90;;;;;;5116186;28;20492;-68
2021/11/19 05:14:59;;;;;;;26.23;15.67;;;11.30;99.90;;;;;;5116250;27;20783;-68
2021/11/19 05:17:25;;;;;;;26.70;17.50;;;11.20;99.90;;;;;;5115994;28;20847;-69
2021/11/19 05:19:52;;;;;;;27.83;16.87;;;11.30;99.90;;;;;;5116075;28;20493;-68
2021/11/19 05:22:19;;;;;;;27.47;17.00;;;11.30;99.90;;;;;;5115900;28;20810;-68
2021/11/19 05:24:49;;;;;;;33.00;15.80;;;11.20;99.90;;;;;;5116897;28;20486;-69
2021/11/19 05:27:16;;;;;;;22.97;15.87;;;11.20;99.90;;;;;;5116016;28;20458;-68
2021/11/19 05:29:43;;;;;;;27.27;16.30;;;11.20;99.90;;;;;;5115917;28;20464;-68
2021/11/19 05:32:10;;;;;;;27.13;18.03;;;11.20;99.90;;;;;;5115869;28;20468;-68
2021/11/19 05:34:39;;;;;;;28.13;15.23;;;11.20;99.90;;;;;;5115732;28;20512;-69
2021/11/19 05:37:06;;;;;;;25.33;16.50;;;11.20;99.90;;;;;;5115810;28;20470;-69
2021/11/19 05:39:33;;;;;;;25.63;16.57;;;11.20;99.90;;;;;;5114736;28;20486;-69
2021/11/19 05:42:01;;;;;;;23.73;16.10;;;11.30;99.90;;;;;;5115743;28;20466;-68
2021/11/19 05:44:28;;;;;;;26.10;15.93;;;11.30;99.90;;;;;;5115344;28;20468;-68
2021/11/19 05:46:55;;;;;;;21.73;15.23;;;11.40;99.90;;;;;;5115887;28;20518;-68
2021/11/19 05:49:24;;;;;;;21.67;15.27;;;11.40;99.90;;;;;;5115651;28;20545;-68
2021/11/19 05:51:53;;;;;;;27.23;15.70;;;11.40;99.90;;;;;;5115575;28;20461;-68
2021/11/19 05:54:22;;;;;;;21.10;14.53;;;11.50;99.90;;;;;;5115594;28;20487;-68
2021/11/19 05:56:50;;;;;;;22.17;14.20;;;11.60;99.90;;;;;;5115674;28;20456;-69
2021/11/19 05:59:19;;;;;;;21.13;12.87;;;11.60;99.90;;;;;;5114940;28;20935;-69
2021/11/19 06:01:46;;;;;;;24.33;13.90;;;11.60;99.90;;;;;;5115595;28;20457;-69
2021/11/19 06:04:13;;;;;;;21.03;11.57;;;11.70;99.90;;;;;;5115142;28;20460;-69
2021/11/19 06:06:41;;;;;;;18.27;12.40;;;11.70;99.90;;;;;;5115947;28;20459;-68
2021/11/19 06:09:14;;;;;;;19.77;11.73;;;11.70;99.90;;;;;;5115645;28;20480;-68
2021/11/19 06:11:45;;;;;;;21.00;12.03;;;11.70;99.90;;;;;;5115439;28;20453;-68
2021/11/19 06:14:15;;;;;;;20.30;11.73;;;11.70;99.90;;;;;;5115370;28;20444;-68
2021/11/19 06:16:47;;;;;;;17.10;10.60;;;11.80;99.90;;;;;;5114949;27;20464;-68
2021/11/19 06:19:18;;;;;;;15.87;11.70;;;11.80;99.90;;;;;;5115484;28;20447;-69
2021/11/19 06:21:49;;;;;;;21.13;12.20;;;11.80;99.90;;;;;;5115345;28;20452;-70
2021/11/19 06:24:21;;;;;;;16.27;11.33;;;11.90;99.90;;;;;;5114932;28;20433;-69
2021/11/19 06:26:48;;;;;;;14.00;10.83;;;11.90;99.90;;;;;;5115254;28;20494;-69
2021/11/19 06:29:15;;;;;;;16.03;10.63;;;11.90;99.90;;;;;;5115143;28;20510;-69
2021/11/19 06:31:46;;;;;;;14.03;10.20;;;11.90;99.90;;;;;;5116134;28;20456;-69
2021/11/19 06:34:14;;;;;;;16.70;9.93;;;11.90;99.90;;;;;;5115254;28;20441;-69
2021/11/19 06:36:42;;;;;;;13.80;10.27;;;11.90;99.90;;;;;;5115307;28;20468;-68
2021/11/19 06:39:14;;;;;;;15.70;10.30;;;11.90;99.90;;;;;;5115079;28;20452;-69
2021/11/19 06:41:41;;;;;;;19.13;10.10;;;11.90;99.90;;;;;;5115255;28;20459;-69
2021/11/19 06:44:08;;;;;;;12.93;10.43;;;11.90;99.90;;;;;;5115747;28;20490;-68
2021/11/19 06:46:35;;;;;;;14.40;10.90;;;11.90;99.90;;;;;;5115214;28;20467;-68
2021/11/19 06:49:04;;;;;;;13.63;9.77;;;11.90;99.90;;;;;;5115035;28;20527;-68
2021/11/19 06:51:31;;;;;;;17.80;12.73;;;11.90;99.90;;;;;;5119011;28;20514;-68
2021/11/19 06:53:58;;;;;;;17.83;12.30;;;12.00;99.90;;;;;;5119390;28;20529;-69
2021/11/19 06:56:25;;;;;;;16.97;12.40;;;12.00;99.90;;;;;;5120304;28;20470;-68
2021/11/19 06:58:53;;;;;;;15.50;12.97;;;12.00;99.90;;;;;;5119651;28;20927;-67
2021/11/19 07:01:20;;;;;;;17.30;12.30;;;12.00;99.90;;;;;;5119051;28;20463;-68
2021/11/19 07:03:46;;;;;;;18.83;12.87;;;12.00;99.90;;;;;;5118663;28;20543;-68
2021/11/19 07:06:15;;;;;;;21.83;14.17;;;11.90;99.90;;;;;;5118639;28;20465;-69
2021/11/19 07:08:42;;;;;;;20.67;14.07;;;11.90;99.90;;;;;;5118240;28;20862;-68
2021/11/19 07:11:18;;;;;;;20.27;14.50;;;11.90;99.90;;;;;;5118626;28;20554;-69
2021/11/19 07:13:48;;;;;;;21.20;13.77;;;11.90;99.90;;;;;;5118643;28;20893;-70
2021/11/19 07:16:15;;;;;;;16.90;12.40;;;11.90;99.90;;;;;;5119127;28;20451;-68
2021/11/19 07:18:42;;;;;;;22.83;14.70;;;11.90;99.90;;;;;;5119155;28;20460;-69
2021/11/19 07:21:09;;;;;;;15.93;11.87;;;11.90;99.90;;;;;;5120790;27;20460;-69
2021/11/19 07:23:37;;;;;;;15.10;12.20;;;11.90;99.90;;;;;;5119563;28;20480;-68
2021/11/19 07:26:04;;;;;;;15.40;11.50;;;11.90;99.90;;;;;;5118702;28;20483;-68
2021/11/19 07:28:31;;;;;;;13.83;10.70;;;11.90;99.90;;;;;;5118583;28;20511;-69
2021/11/19 07:31:01;;;;;;;14.23;10.53;;;11.90;99.90;;;;;;5118139;28;20795;-68
2021/11/19 07:33:28;;;;;;;16.23;11.40;;;12.00;99.90;;;;;;5118798;28;20456;-69
2021/11/19 07:35:57;;;;;;;15.37;11.57;;;11.90;99.90;;;;;;5118180;28;20820;-69
2021/11/19 07:38:26;;;;;;;14.60;11.50;;;12.00;99.90;;;;;;5118173;28;20451;-69
2021/11/19 07:40:54;;;;;;;13.27;11.37;;;12.00;99.90;;;;;;5117677;27;20973;-68
2021/11/19 07:43:23;;;;;;;13.57;10.03;;;12.00;99.90;;;;;;5117678;28;20467;-67
2021/11/19 07:45:50;;;;;;;12.87;10.20;;;12.00;99.90;;;;;;5117937;28;20457;-68
2021/11/19 07:48:26;;;;;;;15.40;10.20;;;12.00;99.90;;;;;;5117785;28;20479;-67
2021/11/19 07:50:56;;;;;;;12.80;9.70;;;12.00;99.90;;;;;;5117957;28;20437;-68
2021/11/19 07:53:23;;;;;;;17.57;10.03;;;12.00;99.90;;;;;;5117968;28;20469;-68
2021/11/19 07:55:52;;;;;;;12.60;9.50;;;12.00;99.90;;;;;;5117461;28;20456;-68
2021/11/19 07:58:21;;;;;;;17.87;10.43;;;12.10;99.90;;;;;;5117709;27;20754;-68
2021/11/19 08:00:49;;;;;;;12.03;10.03;;;12.10;99.90;;;;;;5116540;28;20468;-69
2021/11/19 08:03:16;;;;;;;13.07;10.37;;;12.10;99.90;;;;;;5117517;28;20919;-69
2021/11/19 08:05:47;;;;;;;13.00;9.30;;;12.10;99.90;;;;;;5117479;28;20888;-68
2021/11/19 08:08:14;;;;;;;14.33;10.20;;;12.10;99.90;;;;;;5117131;28;20781;-68
2021/11/19 08:10:41;;;;;;;13.83;8.87;;;12.10;99.90;;;;;;5117723;28;20460;-69
2021/11/19 08:13:09;;;;;;;11.50;8.73;;;12.10;99.90;;;;;;5117012;28;20514;-69
2021/11/19 08:15:38;;;;;;;12.93;9.20;;;12.10;99.90;;;;;;5117130;28;20472;-69
2021/11/19 08:18:12;;;;;;;14.40;10.10;;;12.10;99.90;;;;;;5117203;28;20933;-69
2021/11/19 08:20:41;;;;;;;13.53;9.90;;;12.10;99.90;;;;;;5117374;28;20440;-68
2021/11/19 08:23:10;;;;;;;12.73;10.10;;;12.20;99.90;;;;;;5117331;27;20481;-68
2021/11/19 08:25:37;;;;;;;12.93;8.77;;;12.20;99.90;;;;;;5117232;28;20810;-69
2021/11/19 08:28:05;;;;;;;15.13;10.37;;;12.10;99.90;;;;;;5117267;28;20815;-68
2021/11/19 08:30:37;;;;;;;11.83;9.40;;;12.10;99.90;;;;;;5117039;28;20541;-68
2021/11/19 08:33:07;;;;;;;11.47;9.70;;;12.10;99.90;;;;;;5117004;28;20437;-68
2021/11/19 08:35:35;;;;;;;12.77;9.23;;;12.10;99.90;;;;;;5117171;28;20454;-68
2021/11/19 08:38:04;;;;;;;12.53;10.37;;;12.20;99.90;;;;;;5116816;28;20514;-68
2021/11/19 08:40:32;;;;;;;12.63;9.60;;;12.20;99.90;;;;;;5116724;28;20461;-68
2021/11/19 08:42:59;;;;;;;12.30;10.20;;;12.20;99.90;;;;;;5116884;28;20540;-69
2021/11/19 08:45:26;;;;;;;12.07;9.40;;;12.20;99.90;;;;;;5116786;28;20464;-68
2021/11/19 08:47:56;;;;;;;12.30;9.90;;;12.20;99.90;;;;;;5116706;27;20541;-68
2021/11/19 08:50:28;;;;;;;13.50;11.40;;;12.20;99.90;;;;;;5116152;28;20488;-68
2021/11/19 08:52:55;;;;;;;17.33;10.40;;;12.20;99.90;;;;;;5116757;28;20440;-68
2021/11/19 08:55:22;;;;;;;14.47;10.50;;;12.20;99.90;;;;;;5116364;28;20832;-69
2021/11/19 08:57:49;;;;;;;13.43;9.50;;;12.30;99.90;;;;;;5115999;28;20936;-68
2021/11/19 09:00:19;;;;;;;17.50;10.73;;;12.30;99.90;;;;;;5116329;28;20446;-68
2021/11/19 09:02:46;;;;;;;14.70;11.33;;;12.30;99.90;;;;;;5115812;27;20911;-68
2021/11/19 09:05:14;;;;;;;18.50;13.10;;;12.30;99.90;;;;;;5116295;28;20801;-69
2021/11/19 09:07:43;;;;;;;16.57;11.00;;;12.30;99.90;;;;;;5116645;28;20464;-69
2021/11/19 09:10:12;;;;;;;13.40;10.83;;;12.30;99.90;;;;;;5116219;28;20480;-69
2021/11/19 09:12:40;;;;;;;16.00;12.27;;;12.20;99.90;;;;;;5115349;28;20466;-68
2021/11/19 09:15:09;;;;;;;11.57;9.90;;;12.20;99.90;;;;;;5116225;28;20468;-68
2021/11/19 09:17:59;;;;;;;21.10;10.27;;;12.20;99.90;;;;;;5116316;28;20457;-68
2021/11/19 09:20:45;;;;;;;12.17;10.67;;;12.20;99.90;;;;;;5114759;28;20457;-68
2021/11/19 09:23:15;;;;;;;15.13;11.10;;;12.20;99.90;;;;;;5116651;28;20488;-68
2021/11/19 09:25:43;;;;;;;17.47;11.67;;;12.20;99.90;;;;;;5116775;28;20460;-68
2021/11/19 09:28:11;;;;;;;17.17;11.53;;;12.20;99.90;;;;;;5115679;28;20459;-68
2021/11/19 09:30:41;;;;;;;15.43;12.13;;;12.20;99.90;;;;;;5115952;28;20480;-67
2021/11/19 09:33:10;;;;;;;22.30;14.00;;;12.20;99.90;;;;;;5115902;28;20846;-68
2021/11/19 09:35:38;;;;;;;17.97;14.87;;;12.20;99.90;;;;;;5115858;28;20517;-69
2021/11/19 09:38:07;;;;;;;18.03;14.47;;;12.10;99.90;;;;;;5116692;28;20460;-67
2021/11/19 09:40:38;;;;;;;20.17;14.40;;;12.10;99.90;;;;;;5115431;28;20468;-67
2021/11/19 09:43:14;;;;;;;18.70;13.13;;;12.00;99.90;;;;;;5115181;28;20788;-68
2021/11/19 09:46:12;;;;;;;26.97;16.70;;;12.00;99.90;;;;;;5115542;28;20910;-68
2021/11/19 09:49:07;;;;;;;20.47;14.10;;;12.00;99.90;;;;;;5115412;28;20437;-68
2021/11/19 09:52:29;;;;;;;18.87;14.00;;;12.00;99.90;;;;;;5115306;28;20824;-68
2021/11/19 09:55:27;;;;;;;18.70;13.27;;;12.00;99.90;;;;;;5115216;28;20452;-67
2021/11/19 09:58:24;;;;;;;19.43;12.77;;;12.00;99.90;;;;;;5115751;28;20440;-68
2021/11/19 10:01:09;;;;;;;17.53;13.20;;;12.00;99.90;;;;;;5115792;28;20505;-68
2021/11/19 10:04:11;;;;;;;23.43;13.23;;;12.10;99.90;;;;;;5115710;28;20802;-68
2021/11/19 10:06:44;;;;;;;20.10;13.70;;;12.10;99.90;;;;;;5115516;28;20443;-67
2021/11/19 10:09:18;;;;;;;16.03;12.60;;;12.10;99.90;;;;;;5115917;27;20468;-67
2021/11/19 10:11:51;;;;;;;21.80;13.73;;;12.20;99.90;;;;;;5115463;28;20449;-67
2021/11/19 10:14:36;;;;;;;16.90;12.73;;;12.10;99.90;;;;;;5115732;28;20455;-67
2021/11/19 10:17:10;;;;;;;18.13;13.43;;;12.10;99.90;;;;;;5115695;28;20497;-68
2021/11/19 10:19:44;;;;;;;19.40;14.20;;;12.10;99.90;;;;;;5115560;28;20763;-67
2021/11/19 10:22:22;;;;;;;25.63;13.80;;;12.10;99.90;;;;;;5115242;28;20484;-68
2021/11/19 10:24:57;;;;;;;21.87;15.73;;;12.20;99.90;;;;;;5115100;28;20461;-68
2021/11/19 10:27:28;;;;;;;20.40;13.50;;;12.20;99.90;;;;;;5115998;28;20532;-67
2021/11/19 10:30:00;;;;;;;19.40;13.90;;;12.20;99.90;;;;;;5115107;28;20465;-67
2021/11/19 10:32:29;;;;;;;19.80;13.57;;;12.20;99.90;;;;;;5115021;28;20448;-68
2021/11/19 10:35:08;;;;;;;20.37;12.80;;;12.20;99.90;;;;;;5115290;28;20931;-68
2021/11/19 10:38:18;;;;;;;18.90;12.60;;;12.20;99.90;;;;;;5114862;28;20497;-68
2021/11/19 10:41:21;;;;;;;17.97;12.83;;;12.20;99.90;;;;;;5114596;28;20456;-68
2021/11/19 10:44:27;;;;;;;20.87;13.00;;;12.30;99.90;;;;;;5114701;28;20453;-68
2021/11/19 10:47:33;;;;;;;20.53;12.90;;;12.30;99.90;;;;;;5114834;28;20598;-69
2021/11/19 10:50:23;;;;;;;20.33;12.93;;;12.30;99.90;;;;;;5084162;28;20935;-68
2021/11/19 10:53:14;;;;;;;17.90;12.17;;;12.30;99.90;;;;;;5115613;28;20446;-68
2021/11/19 10:56:21;;;;;;;16.97;12.40;;;12.30;99.90;;;;;;5114842;28;20881;-68
2021/11/19 10:58:54;;;;;;;20.47;13.03;;;12.30;99.90;;;;;;5114363;28;20454;-68
2021/11/19 11:01:32;;;;;;;22.70;13.20;;;12.30;99.90;;;;;;5114754;28;20455;-68
2021/11/19 11:04:10;;;;;;;14.60;10.80;;;12.30;99.90;;;;;;5115109;28;20438;-69
2021/11/19 11:06:43;;;;;;;17.60;12.60;;;12.40;99.90;;;;;;5114611;28;20496;-69
2021/11/19 11:09:21;;;;;;;16.20;12.07;;;12.40;99.90;;;;;;5114187;28;20945;-68
2021/11/19 11:11:54;;;;;;;19.00;10.90;;;12.40;99.90;;;;;;5114794;28;20445;-69
2021/11/19 11:14:21;;;;;;;19.73;11.03;;;12.50;99.90;;;;;;5114591;28;20441;-68
2021/11/19 11:16:51;;;;;;;16.00;10.70;;;12.50;99.90;;;;;;5114199;28;20484;-68
2021/11/19 11:19:23;;;;;;;15.00;11.00;;;12.60;99.90;;;;;;5114256;28;20460;-68
2021/11/19 11:22:03;;;;;;;18.33;11.57;;;12.60;99.90;;;;;;5114330;28;20473;-68
2021/11/19 11:24:33;;;;;;;13.33;10.37;;;12.60;99.90;;;;;;5114621;28;20448;-69
2021/11/19 11:27:14;;;;;;;14.77;9.90;;;12.60;99.90;;;;;;5114305;28;20816;-68
2021/11/19 11:29:52;;;;;;;16.03;10.37;;;12.60;99.90;;;;;;5114844;28;20464;-68
2021/11/19 11:32:34;;;;;;;12.20;9.23;;;12.70;99.90;;;;;;5114640;28;20888;-68
2021/11/19 11:35:12;;;;;;;12.60;9.47;;;12.70;99.90;;;;;;5114604;28;20450;-69
2021/11/19 11:37:56;;;;;;;13.60;9.83;;;12.70;99.90;;;;;;5117964;28;20438;-68
2021/11/19 11:40:29;;;;;;;12.03;8.87;;;12.80;99.90;;;;;;5117752;27;20440;-69
2021/11/19 11:43:16;;;;;;;18.60;9.53;;;12.80;99.90;;;;;;5118551;28;20452;-68
2021/11/19 11:45:45;;;;;;;12.27;9.57;;;12.80;99.90;;;;;;5117635;28;20447;-68
2021/11/19 11:48:28;;;;;;;14.70;9.73;;;12.80;99.90;;;;;;5117719;27;20461;-69
2021/11/19 11:51:05;;;;;;;14.07;9.23;;;12.80;99.90;;;;;;5117885;28;20556;-68
2021/11/19 11:53:43;;;;;;;14.07;9.70;;;12.80;99.90;;;;;;5117230;27;20442;-68
2021/11/19 11:56:19;;;;;;;11.97;9.33;;;12.90;99.90;;;;;;5117612;28;20443;-68
2021/11/19 11:58:52;;;;;;;18.40;9.30;;;12.80;99.90;;;;;;5117556;28;20726;-69
2021/11/19 12:01:37;;;;;;;9.90;8.43;;;12.80;99.90;;;;;;5117591;28;20439;-68
2021/11/19 12:04:12;;;;;;;11.60;9.47;;;12.80;99.90;;;;;;5118081;28;20878;-68
2021/11/19 12:06:50;;;;;;;13.00;9.00;;;12.80;99.90;;;;;;5117614;28;20494;-68
2021/11/19 12:09:25;;;;;;;11.60;8.70;;;12.80;99.90;;;;;;5117460;28;20483;-68
2021/11/19 12:12:28;;;;;;;13.83;8.80;;;12.80;99.90;;;;;;5117659;28;20459;-69
2021/11/19 12:15:04;;;;;;;12.33;8.03;;;12.90;99.90;;;;;;5117448;28;20524;-68
2021/11/19 12:17:38;;;;;;;12.10;8.33;;;12.90;99.90;;;;;;5117324;28;20496;-69
2021/11/19 12:20:16;;;;;;;11.70;7.10;;;12.90;99.90;;;;;;5116831;28;20453;-68
2021/11/19 12:22:46;;;;;;;9.93;7.70;;;13.00;99.90;;;;;;5116934;28;20512;-69
2021/11/19 12:25:45;;;;;;;10.17;7.10;;;13.00;99.90;;;;;;5116759;28;20913;-68
2021/11/19 12:28:14;;;;;;;11.07;6.70;;;13.00;99.90;;;;;;5116963;28;20464;-68
2021/11/19 12:30:46;;;;;;;10.00;6.47;;;13.00;99.90;;;;;;5117588;28;20480;-68
2021/11/19 12:33:20;;;;;;;10.10;6.73;;;13.00;99.90;;;;;;5117050;28;20437;-68
2021/11/19 12:35:55;;;;;;;10.37;5.67;;;13.10;99.90;;;;;;5116884;28;20454;-69
2021/11/19 12:38:25;;;;;;;7.50;6.07;;;13.10;99.90;;;;;;5116697;28;20440;-69
2021/11/19 12:40:58;;;;;;;9.60;6.03;;;13.00;99.90;;;;;;5117004;28;20517;-70
2021/11/19 12:43:47;;;;;;;7.10;5.33;;;13.10;99.90;;;;;;5116752;28;20448;-68
2021/11/19 12:46:26;;;;;;;8.03;5.30;;;13.10;99.90;;;;;;5116784;28;20473;-68
2021/11/19 12:49:19;;;;;;;10.80;5.87;;;13.10;99.90;;;;;;5116608;28;20498;-67
2021/11/19 12:51:56;;;;;;;9.20;6.37;;;13.10;99.90;;;;;;5117471;27;20445;-68